Black River Falls, Wisconsin
Current Conditions -  °F | °C
As of 12:15 PM on Tuesday 21 Oct 2014 (Local Time) from KBCK Reporting Station
Clear Clear  
Wind Chill: 47°   Ceiling: Unl
Heat Index: 49°   Visibility: 10mi
Dew Point: 35°   Wind: 5mph
Humidity: 59%   Direction: 120°ESE
Pressure: 30.24"   Gusts: NA
Location:  44.29°N, 90.85°W
Report Text: KBCK 211715Z AUTO 12004KT 10SM CLR 09/02 A3024 RMK AO2 T00920016
Loading
Personal Weather Stations






























Interactive Weather Map
Tropical Storm Tracking
New forecast layout! Learn more

10-Day Weather Forecast

Advertisements
Track Severe Weather on mobile